Time;durP1;ratioP1;P1;durP2;ratioP2;P2;SDS_P1;SDS_P2;PMS_P1;PMS_P2;Temp;Humidity;BMP_temperature;BMP_pressure;BME280_temperature;BME280_humidity;BME280_pressure;Samples;Min_cycle;Max_cycle;Signal;HPM_P1;HPM_P2
2023/09/29 00:01:33;;;;;;;3.60;3.30;;;19.00;99.90;;;;;;924493;150;27297;-75
2023/09/29 00:44:28;;;;;;;3.90;2.70;;;18.40;99.90;;;;;;942579;146;28339;-76
2023/09/29 00:46:56;;;;;;;3.08;2.87;;;18.30;99.90;;;;;;923722;149;27523;-76
2023/09/29 00:49:21;;;;;;;3.30;3.05;;;18.30;99.90;;;;;;925564;149;27404;-76
2023/09/29 00:51:47;;;;;;;4.17;3.58;;;18.30;99.90;;;;;;938838;146;27828;-76
2023/09/29 00:54:14;;;;;;;4.33;3.25;;;18.20;99.90;;;;;;925037;149;27428;-76
2023/09/29 00:56:40;;;;;;;4.20;2.80;;;18.20;99.90;;;;;;940944;146;27332;-81
2023/09/29 00:59:09;;;;;;;3.70;3.05;;;18.20;99.90;;;;;;922594;149;27341;-79
2023/09/29 01:01:36;;;;;;;3.42;3.12;;;18.20;99.90;;;;;;941256;146;28045;-81
2023/09/29 01:04:03;;;;;;;3.52;3.22;;;18.20;99.90;;;;;;923393;149;27378;-81
2023/09/29 01:06:32;;;;;;;3.85;3.17;;;18.10;99.90;;;;;;941499;146;27291;-80
2023/09/29 01:08:59;;;;;;;3.77;2.90;;;18.10;99.90;;;;;;940816;146;27300;-79
2023/09/29 01:11:25;;;;;;;3.37;3.12;;;18.10;99.90;;;;;;926929;149;27348;-79
2023/09/29 01:13:52;;;;;;;4.58;3.10;;;18.10;99.90;;;;;;926674;149;27431;-78
2023/09/29 01:16:20;;;;;;;4.05;3.65;;;18.00;99.90;;;;;;939858;146;27437;-80
2023/09/29 01:18:45;;;;;;;4.97;3.10;;;18.00;99.90;;;;;;939986;146;27240;-80
2023/09/29 01:21:12;;;;;;;3.70;3.40;;;18.00;99.90;;;;;;922728;149;27504;-79
2023/09/29 01:23:38;;;;;;;4.15;3.10;;;17.90;99.90;;;;;;940593;149;27374;-77
2023/09/29 01:26:08;;;;;;;3.25;3.00;;;17.90;99.90;;;;;;925441;149;27340;-79
2023/09/29 01:28:32;;;;;;;4.10;3.47;;;17.80;99.90;;;;;;940136;148;27500;-80
2023/09/29 01:30:58;;;;;;;3.30;3.00;;;17.90;99.90;;;;;;930031;149;27354;-76
2023/09/29 01:33:25;;;;;;;4.35;3.25;;;17.80;99.90;;;;;;922537;149;27330;-76
2023/09/29 01:35:52;;;;;;;3.92;3.62;;;17.80;99.90;;;;;;941891;146;27347;-80
2023/09/29 01:38:18;;;;;;;3.60;3.33;;;17.70;99.90;;;;;;921537;149;27346;-80
2023/09/29 01:40:45;;;;;;;3.42;3.12;;;17.70;99.90;;;;;;925556;149;27365;-79
2023/09/29 01:43:11;;;;;;;3.92;3.60;;;17.60;99.90;;;;;;939010;146;27451;-81
2023/09/29 01:45:38;;;;;;;4.33;2.98;;;17.60;99.90;;;;;;924484;149;27482;-77
2023/09/29 01:48:04;;;;;;;3.22;3.02;;;17.60;99.90;;;;;;940665;146;27669;-79
2023/09/29 01:50:34;;;;;;;3.72;3.22;;;17.60;99.90;;;;;;946150;146;27369;-78
2023/09/29 01:53:01;;;;;;;3.92;3.62;;;17.60;99.90;;;;;;937694;146;27381;-81
2023/09/29 01:55:27;;;;;;;3.62;3.35;;;17.50;99.90;;;;;;926535;149;27344;-80
2023/09/29 01:57:54;;;;;;;4.10;3.05;;;17.50;99.90;;;;;;941583;146;27336;-79
2023/09/29 02:00:28;;;;;;;3.55;3.25;;;17.50;99.90;;;;;;921411;149;27449;-80
2023/09/29 02:02:53;;;;;;;3.47;3.17;;;17.50;99.90;;;;;;939419;148;27478;-76
2023/09/29 02:05:20;;;;;;;4.00;3.17;;;17.50;99.90;;;;;;941056;146;27360;-79
2023/09/29 02:07:46;;;;;;;4.33;3.30;;;17.50;99.90;;;;;;940165;146;27379;-74
2023/09/29 02:10:12;;;;;;;4.37;3.98;;;17.50;99.90;;;;;;927085;149;27457;-74
2023/09/29 02:12:54;;;;;;;3.77;3.35;;;17.50;99.90;;;;;;925534;149;27325;-74
2023/09/29 02:15:21;;;;;;;3.37;3.12;;;17.50;99.90;;;;;;921485;149;27436;-74
2023/09/29 02:17:50;;;;;;;4.03;3.25;;;17.50;99.90;;;;;;938893;146;27308;-74
2023/09/29 02:20:28;;;;;;;4.25;3.50;;;17.50;99.90;;;;;;923314;149;27767;-75
2023/09/29 02:22:46;;;;;;;3.77;3.40;;;17.40;99.90;;;;;;938578;146;27390;-73
2023/09/29 02:25:15;;;;;;;3.33;3.05;;;17.40;99.90;;;;;;924788;149;27379;-74
2023/09/29 02:27:42;;;;;;;3.52;3.22;;;17.40;99.90;;;;;;940249;146;27325;-73
2023/09/29 02:30:09;;;;;;;3.58;3.27;;;17.40;99.90;;;;;;923208;149;27333;-75
2023/09/29 02:32:35;;;;;;;4.12;3.72;;;17.40;99.90;;;;;;937819;148;27412;-74
2023/09/29 02:35:01;;;;;;;3.33;3.02;;;17.40;99.90;;;;;;936375;148;27344;-74
2023/09/29 02:37:28;;;;;;;3.22;2.92;;;17.40;99.90;;;;;;937778;148;27361;-76
2023/09/29 02:39:55;;;;;;;3.67;3.30;;;17.40;99.90;;;;;;937756;148;27498;-74
2023/09/29 02:42:22;;;;;;;6.15;3.40;;;17.30;99.90;;;;;;940316;148;27339;-75
2023/09/29 02:44:48;;;;;;;3.60;3.35;;;17.30;99.90;;;;;;925675;149;27415;-74
2023/09/29 02:47:14;;;;;;;3.70;3.22;;;17.30;99.90;;;;;;950728;145;27415;-76
2023/09/29 02:49:41;;;;;;;5.45;3.70;;;17.30;99.90;;;;;;944526;147;27376;-74
2023/09/29 02:52:07;;;;;;;3.70;3.40;;;17.30;99.90;;;;;;947204;147;27348;-76
2023/09/29 02:54:35;;;;;;;4.10;3.70;;;17.30;99.90;;;;;;960076;145;27324;-74
2023/09/29 02:57:01;;;;;;;3.50;3.20;;;17.30;99.90;;;;;;943030;148;27320;-74
2023/09/29 02:59:27;;;;;;;3.65;3.35;;;17.30;99.90;;;;;;959072;145;27350;-77
2023/09/29 03:01:54;;;;;;;3.67;3.37;;;17.30;99.90;;;;;;944467;147;27365;-73
2023/09/29 03:04:20;;;;;;;3.45;3.15;;;17.30;99.90;;;;;;943550;148;28293;-73
2023/09/29 03:06:47;;;;;;;8.30;4.08;;;17.40;99.90;;;;;;959025;145;27416;-74
2023/09/29 03:09:13;;;;;;;3.80;3.50;;;17.40;99.90;;;;;;945216;147;27484;-74
2023/09/29 03:11:40;;;;;;;3.50;3.20;;;17.50;99.90;;;;;;959939;145;27311;-74
2023/09/29 03:14:07;;;;;;;5.00;3.20;;;17.50;99.90;;;;;;945436;147;27334;-74
2023/09/29 03:16:35;;;;;;;8.45;4.72;;;17.60;99.90;;;;;;960585;145;27446;-75
2023/09/29 03:19:00;;;;;;;3.35;3.05;;;17.70;99.90;;;;;;945196;147;27372;-76
2023/09/29 03:21:27;;;;;;;3.12;2.90;;;17.70;99.90;;;;;;941515;148;27425;-76
2023/09/29 03:23:53;;;;;;;3.75;3.42;;;17.80;99.90;;;;;;942748;148;27386;-76
2023/09/29 03:26:22;;;;;;;4.00;3.55;;;17.80;99.90;;;;;;959620;145;27358;-75
2023/09/29 03:28:46;;;;;;;3.58;3.27;;;17.90;99.90;;;;;;943432;147;27477;-75
2023/09/29 03:31:13;;;;;;;5.30;3.37;;;18.00;99.90;;;;;;956991;145;28465;-76
2023/09/29 03:33:39;;;;;;;3.75;3.45;;;18.00;99.90;;;;;;961284;145;27298;-76
2023/09/29 03:36:06;;;;;;;3.37;3.08;;;18.00;99.90;;;;;;943356;148;27430;-76
2023/09/29 03:38:33;;;;;;;3.92;3.55;;;18.10;99.90;;;;;;958806;145;27708;-76
2023/09/29 03:41:00;;;;;;;3.50;3.20;;;18.10;99.90;;;;;;945376;148;27431;-76
2023/09/29 03:43:26;;;;;;;3.25;2.95;;;18.20;99.90;;;;;;945544;147;27335;-75
2023/09/29 03:45:53;;;;;;;4.30;3.52;;;18.20;99.90;;;;;;958186;145;27412;-75
2023/09/29 03:48:19;;;;;;;3.52;3.22;;;18.30;99.90;;;;;;960474;145;27366;-76
2023/09/29 03:50:49;;;;;;;4.03;3.10;;;18.30;99.90;;;;;;942569;147;27477;-76
2023/09/29 03:53:12;;;;;;;3.70;3.30;;;18.30;99.90;;;;;;938840;148;27382;-76
2023/09/29 03:55:39;;;;;;;4.10;3.58;;;18.30;99.90;;;;;;946040;147;27358;-76
2023/09/29 03:58:05;;;;;;;3.33;3.02;;;18.30;99.90;;;;;;941524;148;27459;-76
2023/09/29 04:00:32;;;;;;;4.70;3.65;;;18.40;99.90;;;;;;943149;148;27360;-75
2023/09/29 04:02:58;;;;;;;3.45;3.15;;;18.40;99.90;;;;;;960241;145;27319;-75
2023/09/29 04:05:25;;;;;;;3.87;3.47;;;18.40;99.90;;;;;;946285;147;27760;-76
2023/09/29 04:07:52;;;;;;;3.87;3.47;;;18.40;99.90;;;;;;958972;145;27327;-76
2023/09/29 04:10:20;;;;;;;3.50;3.20;;;18.40;99.90;;;;;;944742;147;27278;-76
2023/09/29 04:12:46;;;;;;;3.12;2.90;;;18.40;99.90;;;;;;945110;147;27452;-76
2023/09/29 04:15:11;;;;;;;3.22;2.95;;;18.40;99.90;;;;;;941011;148;27714;-75
2023/09/29 04:17:38;;;;;;;3.58;3.27;;;18.50;99.90;;;;;;959956;145;27332;-75
2023/09/29 04:20:05;;;;;;;3.33;3.10;;;18.50;99.90;;;;;;943080;148;27892;-76
2023/09/29 04:22:32;;;;;;;4.50;3.50;;;18.50;99.90;;;;;;960193;145;27432;-75
2023/09/29 04:24:58;;;;;;;3.02;2.83;;;18.50;99.90;;;;;;960440;145;27342;-76
2023/09/29 04:27:24;;;;;;;3.30;3.00;;;18.50;99.90;;;;;;943065;148;27413;-78
2023/09/29 04:29:54;;;;;;;4.50;3.40;;;18.50;99.90;;;;;;944269;147;27422;-78
2023/09/29 04:32:21;;;;;;;3.52;3.22;;;18.50;99.90;;;;;;943563;148;27425;-78
2023/09/29 04:34:47;;;;;;;3.40;3.10;;;18.50;99.90;;;;;;944714;148;27377;-78
2023/09/29 04:37:14;;;;;;;3.42;3.12;;;18.50;99.90;;;;;;942016;147;27344;-78
2023/09/29 04:39:40;;;;;;;3.72;3.22;;;18.60;99.90;;;;;;943390;147;27386;-77
2023/09/29 04:42:07;;;;;;;3.20;2.98;;;18.50;99.90;;;;;;942190;147;27384;-78
2023/09/29 04:44:34;;;;;;;3.20;2.90;;;18.60;99.90;;;;;;946296;147;27331;-78
2023/09/29 04:47:00;;;;;;;3.60;3.30;;;18.50;99.90;;;;;;942713;147;27427;-78
2023/09/29 04:49:27;;;;;;;3.65;3.12;;;18.50;99.90;;;;;;944960;147;27429;-78
2023/09/29 04:51:53;;;;;;;3.83;3.05;;;18.50;99.90;;;;;;960418;145;27310;-78
2023/09/29 04:54:20;;;;;;;6.37;3.33;;;18.50;99.90;;;;;;956377;145;27351;-78
2023/09/29 04:56:46;;;;;;;3.58;3.22;;;18.50;99.90;;;;;;958024;145;27378;-78
2023/09/29 04:59:13;;;;;;;5.55;3.00;;;18.60;99.90;;;;;;960158;145;27323;-77
2023/09/29 05:01:40;;;;;;;3.90;3.52;;;18.60;99.90;;;;;;942638;148;27394;-76
2023/09/29 05:04:06;;;;;;;5.33;3.42;;;18.60;99.90;;;;;;943887;147;27382;-77
2023/09/29 05:06:33;;;;;;;3.65;3.35;;;18.60;99.90;;;;;;941554;148;27398;-78
2023/09/29 05:09:00;;;;;;;3.62;3.33;;;18.60;99.90;;;;;;959963;145;27327;-77
2023/09/29 05:11:26;;;;;;;7.53;3.35;;;18.60;99.90;;;;;;941348;148;27464;-78
2023/09/29 05:13:53;;;;;;;4.03;2.98;;;18.60;99.90;;;;;;944863;147;27432;-77
2023/09/29 05:16:19;;;;;;;6.87;3.55;;;18.60;99.90;;;;;;940367;148;27373;-78
2023/09/29 05:18:46;;;;;;;3.60;3.30;;;18.60;99.90;;;;;;961670;145;27374;-78
2023/09/29 05:21:12;;;;;;;4.87;3.55;;;18.60;99.90;;;;;;948676;147;27370;-78
2023/09/29 05:23:39;;;;;;;3.80;3.20;;;18.60;99.90;;;;;;943136;147;27346;-78
2023/09/29 05:26:07;;;;;;;3.55;3.20;;;18.60;99.90;;;;;;945605;147;27473;-78
2023/09/29 05:28:32;;;;;;;3.47;3.17;;;18.60;99.90;;;;;;942592;148;27375;-77
2023/09/29 05:30:59;;;;;;;4.12;3.10;;;18.60;99.90;;;;;;959797;145;27519;-78
2023/09/29 05:33:25;;;;;;;4.03;3.62;;;18.60;99.90;;;;;;943245;147;27430;-78
2023/09/29 05:35:52;;;;;;;4.03;3.27;;;18.70;99.90;;;;;;944202;147;28232;-77
2023/09/29 05:38:19;;;;;;;3.22;3.00;;;18.70;99.90;;;;;;943046;147;27352;-74
2023/09/29 05:40:48;;;;;;;3.52;3.22;;;18.70;99.90;;;;;;941558;148;27439;-75
2023/09/29 05:43:12;;;;;;;3.85;3.27;;;18.70;99.90;;;;;;960725;145;27471;-74
2023/09/29 05:45:38;;;;;;;3.47;3.08;;;18.70;99.90;;;;;;942864;147;28078;-73
2023/09/29 05:48:06;;;;;;;3.30;2.98;;;18.70;99.90;;;;;;941344;147;27352;-74
2023/09/29 05:50:31;;;;;;;3.75;3.20;;;18.70;99.90;;;;;;932970;149;27382;-78
2023/09/29 05:52:58;;;;;;;5.37;3.37;;;18.70;99.90;;;;;;925132;150;27479;-74
2023/09/29 05:55:25;;;;;;;3.70;3.40;;;18.80;99.90;;;;;;931123;149;27897;-73
2023/09/29 05:57:51;;;;;;;5.30;3.45;;;18.80;99.90;;;;;;943391;147;27364;-74
2023/09/29 06:00:18;;;;;;;3.42;3.20;;;18.80;99.90;;;;;;924541;150;27279;-73
2023/09/29 06:02:46;;;;;;;3.27;2.98;;;18.80;99.90;;;;;;937990;146;27410;-75
2023/09/29 06:05:11;;;;;;;3.27;2.98;;;18.90;99.90;;;;;;924228;149;27365;-75
2023/09/29 06:07:38;;;;;;;3.40;3.05;;;18.90;99.90;;;;;;939232;146;27433;-73
2023/09/29 06:10:04;;;;;;;3.00;2.77;;;18.90;99.90;;;;;;939876;146;27346;-76
2023/09/29 06:12:31;;;;;;;3.52;3.22;;;19.00;99.90;;;;;;940474;146;27346;-76
2023/09/29 06:14:57;;;;;;;3.42;3.12;;;19.00;99.90;;;;;;924179;149;27353;-72
2023/09/29 06:17:24;;;;;;;4.72;3.35;;;19.10;99.90;;;;;;949229;146;27347;-72
2023/09/29 06:19:51;;;;;;;3.37;3.08;;;19.10;99.90;;;;;;940345;146;27348;-73
2023/09/29 06:22:17;;;;;;;3.00;2.80;;;19.20;99.90;;;;;;922643;149;27366;-73
2023/09/29 06:24:44;;;;;;;3.35;3.05;;;19.30;99.90;;;;;;939327;146;27326;-73
2023/09/29 06:27:13;;;;;;;6.28;3.60;;;19.40;99.90;;;;;;925316;149;27299;-75
2023/09/29 06:29:40;;;;;;;6.17;3.47;;;19.50;99.90;;;;;;923970;149;28248;-73
2023/09/29 06:32:08;;;;;;;4.40;2.85;;;19.50;99.90;;;;;;943219;148;27371;-74
2023/09/29 06:34:33;;;;;;;3.02;2.72;;;19.60;99.90;;;;;;924707;150;27861;-74
2023/09/29 06:37:00;;;;;;;3.25;2.98;;;19.70;99.90;;;;;;940144;146;27441;-72
2023/09/29 06:39:27;;;;;;;2.98;2.77;;;19.80;99.90;;;;;;927727;149;27316;-73
2023/09/29 06:41:53;;;;;;;3.52;3.00;;;19.90;99.90;;;;;;940945;146;27444;-73
2023/09/29 06:44:19;;;;;;;3.10;2.80;;;20.00;99.90;;;;;;922744;149;27354;-74
2023/09/29 06:46:46;;;;;;;4.85;3.08;;;20.10;99.90;;;;;;925836;149;27422;-73
2023/09/29 06:49:13;;;;;;;4.17;2.55;;;20.30;99.90;;;;;;923889;149;27438;-76
2023/09/29 06:51:39;;;;;;;6.05;2.95;;;20.50;99.90;;;;;;923368;149;27443;-75
2023/09/29 06:54:06;;;;;;;6.50;2.92;;;20.80;99.90;;;;;;945332;146;27438;-76
2023/09/29 06:56:32;;;;;;;3.67;3.12;;;21.10;99.90;;;;;;940148;146;27476;-76
2023/09/29 06:58:59;;;;;;;4.03;3.12;;;21.40;99.90;;;;;;926704;149;27372;-74
2023/09/29 07:01:27;;;;;;;3.25;2.90;;;21.70;99.90;;;;;;924153;149;27457;-74
2023/09/29 07:03:52;;;;;;;3.95;3.05;;;21.90;99.90;;;;;;940614;146;27814;-73
2023/09/29 07:06:22;;;;;;;3.58;2.85;;;22.10;99.70;;;;;;933521;149;27760;-76
2023/09/29 07:08:45;;;;;;;5.10;3.40;;;22.30;99.10;;;;;;922028;150;27434;-73
2023/09/29 07:11:12;;;;;;;3.50;3.00;;;22.50;99.20;;;;;;941320;146;27373;-76
2023/09/29 07:13:38;;;;;;;6.37;2.87;;;22.60;98.70;;;;;;940523;146;27340;-74
2023/09/29 07:16:05;;;;;;;3.58;3.15;;;22.80;97.50;;;;;;923908;149;27354;-76
2023/09/29 07:18:32;;;;;;;3.30;3.00;;;23.00;96.60;;;;;;924328;149;28221;-76
2023/09/29 07:20:58;;;;;;;7.45;3.37;;;23.20;95.90;;;;;;940780;146;27299;-74
2023/09/29 07:23:25;;;;;;;3.47;3.20;;;23.30;95.60;;;;;;925407;149;27338;-76
2023/09/29 07:25:52;;;;;;;2.92;2.72;;;23.50;95.60;;;;;;925890;149;27445;-73
2023/09/29 07:28:18;;;;;;;3.72;3.02;;;23.70;95.40;;;;;;940378;146;27358;-73
2023/09/29 07:30:45;;;;;;;4.62;2.72;;;23.90;95.10;;;;;;940922;146;27426;-73
2023/09/29 07:33:11;;;;;;;3.47;3.17;;;24.20;95.50;;;;;;939445;146;27356;-73
2023/09/29 07:35:38;;;;;;;5.60;3.47;;;24.60;95.20;;;;;;924261;149;27423;-75
2023/09/29 07:38:04;;;;;;;2.95;2.72;;;25.00;93.90;;;;;;939506;146;28483;-74
2023/09/29 07:40:31;;;;;;;3.12;2.72;;;25.60;94.60;;;;;;926058;149;27275;-73
2023/09/29 07:42:58;;;;;;;3.20;2.90;;;26.20;95.50;;;;;;928314;149;27931;-74
2023/09/29 07:45:24;;;;;;;2.65;2.45;;;27.00;94.50;;;;;;923522;149;27355;-75
2023/09/29 07:47:51;;;;;;;2.72;2.52;;;28.00;92.30;;;;;;924225;149;27416;-73
2023/09/29 07:50:19;;;;;;;3.62;2.52;;;28.90;90.30;;;;;;937896;146;27815;-77
2023/09/29 07:52:44;;;;;;;3.10;2.37;;;29.80;84.30;;;;;;924780;149;27772;-73
2023/09/29 07:55:10;;;;;;;2.40;2.20;;;30.50;79.70;;;;;;939382;146;27413;-74
2023/09/29 07:57:37;;;;;;;2.62;2.42;;;31.20;76.20;;;;;;940890;146;27312;-76
2023/09/29 08:00:10;;;;;;;3.22;2.47;;;31.70;71.80;;;;;;924342;149;27811;-76
2023/09/29 08:02:34;;;;;;;4.12;2.40;;;32.10;68.30;;;;;;923071;149;27380;-76
2023/09/29 08:05:00;;;;;;;3.45;2.55;;;32.20;65.50;;;;;;940389;146;27293;-76
2023/09/29 08:07:27;;;;;;;2.85;2.65;;;32.10;63.80;;;;;;926431;149;27416;-76
2023/09/29 08:09:53;;;;;;;2.65;2.42;;;32.00;62.40;;;;;;924551;149;27480;-76
2023/09/29 08:12:19;;;;;;;3.17;2.52;;;31.90;62.60;;;;;;926728;150;27377;-76
2023/09/29 08:14:47;;;;;;;2.77;2.30;;;31.70;62.40;;;;;;936974;148;27421;-75
2023/09/29 08:17:13;;;;;;;2.87;2.65;;;31.50;61.80;;;;;;938685;148;26226;-76
2023/09/29 08:19:39;;;;;;;2.40;2.20;;;31.20;61.00;;;;;;937056;148;27432;-75
2023/09/29 08:22:06;;;;;;;2.90;2.65;;;31.00;60.90;;;;;;926140;149;26291;-76
2023/09/29 08:24:32;;;;;;;5.12;2.52;;;30.70;60.70;;;;;;925321;149;27435;-76
2023/09/29 08:27:00;;;;;;;3.02;2.17;;;30.40;60.30;;;;;;943473;146;27318;-76
2023/09/29 08:29:26;;;;;;;3.62;2.60;;;30.00;60.20;;;;;;924910;149;27347;-76
2023/09/29 08:31:53;;;;;;;2.90;2.60;;;29.70;60.50;;;;;;924132;149;27538;-76
2023/09/29 08:34:19;;;;;;;3.17;2.87;;;29.40;60.90;;;;;;941987;148;27346;-75
2023/09/29 08:36:45;;;;;;;2.95;2.65;;;29.00;61.00;;;;;;941305;148;27485;-76
2023/09/29 08:39:12;;;;;;;3.40;3.10;;;28.80;61.40;;;;;;941966;147;27360;-76
2023/09/29 08:41:38;;;;;;;2.58;2.27;;;28.70;62.70;;;;;;944695;148;28214;-75
2023/09/29 08:44:05;;;;;;;3.42;2.58;;;28.90;64.80;;;;;;923910;149;27333;-76
2023/09/29 08:46:32;;;;;;;5.67;2.70;;;29.20;66.50;;;;;;925892;150;27790;-75
2023/09/29 08:48:58;;;;;;;2.80;2.37;;;29.70;67.00;;;;;;944191;146;27350;-75
2023/09/29 08:51:25;;;;;;;4.42;2.85;;;30.20;65.90;;;;;;942130;148;27388;-76
2023/09/29 08:53:51;;;;;;;4.67;2.90;;;30.60;64.00;;;;;;941458;147;27471;-75
2023/09/29 08:56:18;;;;;;;2.60;2.40;;;31.00;62.60;;;;;;943174;146;27360;-76
2023/09/29 08:58:45;;;;;;;3.95;2.80;;;31.10;61.40;;;;;;938856;146;27389;-76
2023/09/29 09:01:11;;;;;;;4.10;2.72;;;31.20;60.40;;;;;;939211;146;27328;-76
2023/09/29 09:03:38;;;;;;;2.70;2.47;;;31.20;59.90;;;;;;939086;146;27266;-76
2023/09/29 09:06:23;;;;;;;4.28;2.85;;;31.10;59.40;;;;;;926875;149;27380;-77
2023/09/29 09:08:52;;;;;;;2.60;2.40;;;31.00;59.10;;;;;;924855;149;27390;-74
2023/09/29 09:11:19;;;;;;;3.27;2.92;;;30.90;59.20;;;;;;924366;149;27326;-74
2023/09/29 09:14:03;;;;;;;3.02;2.60;;;30.70;59.10;;;;;;922376;149;26386;-73
2023/09/29 09:16:27;;;;;;;2.90;2.65;;;30.50;59.10;;;;;;925733;149;27486;-74
2023/09/29 09:18:53;;;;;;;2.55;2.35;;;30.30;59.20;;;;;;939392;146;26349;-73
2023/09/29 09:21:20;;;;;;;2.67;2.47;;;30.20;59.30;;;;;;924469;149;27326;-73
2023/09/29 09:23:47;;;;;;;3.70;3.05;;;30.20;59.80;;;;;;941129;146;27297;-74
2023/09/29 09:26:14;;;;;;;3.17;2.37;;;30.30;60.80;;;;;;941154;146;27332;-74
2023/09/29 09:28:41;;;;;;;2.45;2.25;;;30.50;62.00;;;;;;939733;146;27279;-76
2023/09/29 09:31:07;;;;;;;2.62;2.33;;;30.90;62.50;;;;;;941454;146;26337;-75
2023/09/29 09:33:33;;;;;;;4.12;2.58;;;31.40;62.70;;;;;;940261;146;26372;-75
2023/09/29 09:36:11;;;;;;;2.50;2.30;;;31.90;61.90;;;;;;938782;146;26348;-77
2023/09/29 09:38:38;;;;;;;4.08;2.30;;;32.40;61.30;;;;;;923243;149;26304;-76
2023/09/29 09:41:05;;;;;;;2.80;2.60;;;32.80;60.10;;;;;;928203;149;26260;-74
2023/09/29 09:43:40;;;;;;;2.58;2.37;;;33.20;58.80;;;;;;925024;149;26292;-73
2023/09/29 09:46:03;;;;;;;2.45;2.25;;;33.50;58.10;;;;;;923170;149;26321;-73
2023/09/29 09:48:24;;;;;;;4.70;2.62;;;33.70;57.70;;;;;;924288;149;26303;-74
2023/09/29 09:50:51;;;;;;;3.70;2.98;;;33.80;57.40;;;;;;940957;145;27423;-74
2023/09/29 09:53:18;;;;;;;2.58;2.37;;;33.90;57.00;;;;;;962576;145;26290;-77
2023/09/29 09:55:52;;;;;;;3.15;2.50;;;34.10;56.50;;;;;;944982;148;27339;-77
2023/09/29 09:58:21;;;;;;;3.50;2.58;;;34.20;55.80;;;;;;939413;148;28493;-73
2023/09/29 10:00:47;;;;;;;3.10;2.60;;;34.30;55.40;;;;;;959599;145;26235;-76
2023/09/29 10:03:12;;;;;;;3.30;2.27;;;34.30;55.00;;;;;;946016;147;27272;-77
2023/09/29 10:05:42;;;;;;;3.05;2.75;;;34.20;54.90;;;;;;947665;147;27398;-74
2023/09/29 10:08:10;;;;;;;3.50;2.60;;;34.20;54.80;;;;;;958351;145;27430;-76
2023/09/29 10:10:35;;;;;;;2.45;2.25;;;34.20;54.70;;;;;;955981;147;26346;-74
2023/09/29 10:13:02;;;;;;;2.58;2.08;;;34.20;54.70;;;;;;962159;145;26682;-75
2023/09/29 10:15:29;;;;;;;2.42;2.22;;;34.20;54.30;;;;;;945407;147;26253;-76
2023/09/29 10:17:55;;;;;;;2.83;2.50;;;34.20;53.90;;;;;;958128;145;26352;-78
2023/09/29 10:20:21;;;;;;;3.37;2.45;;;34.10;53.60;;;;;;943259;148;27338;-78
2023/09/29 10:22:54;;;;;;;2.92;2.60;;;34.10;53.00;;;;;;958588;145;27339;-78
2023/09/29 10:25:20;;;;;;;3.47;2.20;;;34.00;52.90;;;;;;941757;148;27436;-77
2023/09/29 10:27:42;;;;;;;2.52;2.22;;;33.80;52.60;;;;;;941234;148;27384;-77
2023/09/29 10:30:16;;;;;;;3.45;2.50;;;33.60;52.50;;;;;;944375;147;27288;-77
2023/09/29 10:32:47;;;;;;;6.00;2.52;;;33.40;52.40;;;;;;945134;147;27451;-77
2023/09/29 10:35:18;;;;;;;4.40;2.55;;;33.20;52.40;;;;;;943967;147;27310;-78
2023/09/29 10:37:42;;;;;;;4.60;2.65;;;33.00;52.40;;;;;;942162;147;27898;-77
2023/09/29 10:40:08;;;;;;;2.37;2.17;;;32.70;51.80;;;;;;961190;145;27329;-78
2023/09/29 10:42:38;;;;;;;3.20;2.40;;;32.50;52.50;;;;;;958083;145;28057;-77
2023/09/29 10:45:01;;;;;;;2.72;2.47;;;32.30;52.60;;;;;;960880;145;27353;-77
2023/09/29 10:47:33;;;;;;;2.20;2.10;;;32.10;52.60;;;;;;944678;148;27405;-77
2023/09/29 10:50:03;;;;;;;2.75;2.55;;;32.00;52.70;;;;;;940492;148;27288;-77
2023/09/29 10:52:30;;;;;;;2.50;2.27;;;31.80;52.90;;;;;;960595;145;27474;-77
2023/09/29 10:54:58;;;;;;;5.90;2.42;;;31.60;53.20;;;;;;944847;148;26392;-77
2023/09/29 10:57:25;;;;;;;3.15;2.25;;;31.50;53.50;;;;;;958591;145;27872;-77
2023/09/29 10:59:49;;;;;;;2.00;1.90;;;31.40;53.60;;;;;;944994;147;27358;-77
2023/09/29 11:02:16;;;;;;;2.45;2.22;;;31.40;53.60;;;;;;961274;145;27332;-77
2023/09/29 11:04:43;;;;;;;2.65;2.45;;;31.30;53.50;;;;;;942312;148;27397;-77
2023/09/29 11:07:09;;;;;;;2.40;2.20;;;31.30;53.50;;;;;;939388;148;27366;-77
2023/09/29 11:09:36;;;;;;;4.03;2.52;;;31.30;53.40;;;;;;943763;148;27395;-77
2023/09/29 11:12:03;;;;;;;3.00;2.62;;;31.20;53.60;;;;;;941011;148;26276;-77
2023/09/29 11:14:38;;;;;;;2.62;2.42;;;31.20;53.60;;;;;;959574;145;27392;-77
2023/09/29 11:17:05;;;;;;;2.65;2.45;;;31.20;53.80;;;;;;958360;145;27385;-78
2023/09/29 11:19:31;;;;;;;2.95;2.60;;;31.20;54.00;;;;;;962142;145;27323;-77
2023/09/29 11:22:02;;;;;;;2.47;2.27;;;31.20;54.10;;;;;;943415;148;27329;-77
2023/09/29 11:24:28;;;;;;;2.65;2.45;;;31.30;54.20;;;;;;944088;148;27290;-77
2023/09/29 11:26:55;;;;;;;2.25;2.10;;;31.30;54.30;;;;;;941111;148;27350;-81
2023/09/29 11:29:21;;;;;;;2.95;2.60;;;31.50;54.60;;;;;;963500;145;27351;-81
2023/09/29 11:31:47;;;;;;;2.50;1.90;;;31.50;54.90;;;;;;946194;147;27324;-81
2023/09/29 11:34:15;;;;;;;2.85;2.08;;;31.70;54.50;;;;;;945295;148;27464;-78
2023/09/29 11:36:40;;;;;;;3.22;2.42;;;31.80;54.30;;;;;;940251;148;27391;-81
2023/09/29 11:39:07;;;;;;;2.85;2.25;;;31.90;54.00;;;;;;962732;145;27363;-82
2023/09/29 11:41:33;;;;;;;3.08;2.50;;;31.90;53.70;;;;;;944461;148;27368;-79
2023/09/29 11:44:00;;;;;;;3.67;2.35;;;31.90;53.50;;;;;;946828;147;27349;-81
2023/09/29 11:46:26;;;;;;;2.47;2.27;;;31.90;53.50;;;;;;943125;148;27319;-82
2023/09/29 11:48:53;;;;;;;2.47;2.15;;;31.90;53.40;;;;;;940419;148;27304;-80
2023/09/29 11:51:20;;;;;;;2.52;2.30;;;31.90;53.40;;;;;;946034;147;27376;-80
2023/09/29 11:53:47;;;;;;;2.92;2.45;;;31.90;53.20;;;;;;945518;148;27393;-81
2023/09/29 11:56:13;;;;;;;6.22;2.62;;;31.90;53.20;;;;;;941133;148;28771;-76
2023/09/29 11:58:39;;;;;;;2.80;2.47;;;31.80;53.00;;;;;;944158;147;27419;-80
2023/09/29 12:01:08;;;;;;;2.85;2.58;;;31.70;53.00;;;;;;945101;147;27489;-78
2023/09/29 12:03:34;;;;;;;2.42;2.22;;;31.60;53.10;;;;;;946132;147;26647;-81
2023/09/29 12:06:01;;;;;;;3.98;2.67;;;31.50;53.20;;;;;;942610;148;28582;-82
2023/09/29 12:08:26;;;;;;;3.65;2.70;;;31.40;53.40;;;;;;940619;148;26747;-80
2023/09/29 12:10:53;;;;;;;3.40;2.67;;;31.20;53.30;;;;;;960489;145;27330;-81
2023/09/29 12:13:19;;;;;;;3.05;2.52;;;31.20;53.40;;;;;;942272;148;27310;-81
2023/09/29 12:15:45;;;;;;;2.47;2.27;;;31.10;53.50;;;;;;941505;148;27317;-81
2023/09/29 12:18:12;;;;;;;3.58;2.67;;;31.00;53.50;;;;;;959302;145;27346;-76
2023/09/29 12:20:39;;;;;;;2.47;2.27;;;30.90;53.50;;;;;;942856;148;27454;-80
2023/09/29 12:23:06;;;;;;;3.10;2.70;;;30.80;53.60;;;;;;947435;148;27442;-76
2023/09/29 12:25:32;;;;;;;3.42;2.62;;;30.70;53.70;;;;;;944924;147;26395;-80
2023/09/29 12:27:58;;;;;;;4.80;2.15;;;30.60;53.80;;;;;;958448;145;27263;-80
2023/09/29 12:30:25;;;;;;;3.20;2.70;;;30.50;53.90;;;;;;959246;145;27355;-81
2023/09/29 12:32:52;;;;;;;3.20;2.50;;;30.50;54.20;;;;;;940602;148;27362;-79
2023/09/29 12:35:18;;;;;;;7.00;2.77;;;30.50;54.50;;;;;;959285;145;26257;-81
2023/09/29 12:37:45;;;;;;;2.67;2.47;;;30.40;54.70;;;;;;945253;147;27854;-76
2023/09/29 12:40:11;;;;;;;3.37;2.83;;;30.50;55.00;;;;;;959716;145;27314;-76
2023/09/29 12:42:40;;;;;;;4.62;2.33;;;30.50;54.90;;;;;;943560;147;27502;-76
2023/09/29 12:45:05;;;;;;;2.47;2.10;;;30.60;54.90;;;;;;941852;147;27350;-76
2023/09/29 12:47:31;;;;;;;2.55;2.35;;;30.60;54.80;;;;;;959056;145;27354;-75
2023/09/29 12:49:58;;;;;;;2.62;2.42;;;30.60;54.60;;;;;;960287;145;26318;-76
2023/09/29 12:52:24;;;;;;;6.28;2.62;;;30.70;54.60;;;;;;953533;147;27445;-76
2023/09/29 12:54:51;;;;;;;2.02;1.92;;;30.70;54.40;;;;;;940269;148;26331;-76
2023/09/29 12:57:20;;;;;;;1.85;1.75;;;30.70;54.30;;;;;;943354;147;27407;-77
2023/09/29 12:59:44;;;;;;;3.65;1.80;;;30.70;54.30;;;;;;941836;148;27338;-76
2023/09/29 13:02:11;;;;;;;2.30;1.70;;;30.80;54.20;;;;;;945320;147;27324;-76
2023/09/29 13:04:37;;;;;;;2.77;2.15;;;30.80;54.20;;;;;;960355;145;27347;-76
2023/09/29 13:07:04;;;;;;;3.52;1.87;;;30.80;54.00;;;;;;953204;147;27442;-76
2023/09/29 13:09:33;;;;;;;3.22;2.00;;;30.80;53.40;;;;;;961380;145;27406;-76
2023/09/29 13:12:00;;;;;;;2.80;2.00;;;30.70;53.50;;;;;;944082;148;27398;-76
2023/09/29 13:14:26;;;;;;;2.50;2.10;;;30.70;53.60;;;;;;959361;145;27457;-77
2023/09/29 13:16:53;;;;;;;2.35;2.15;;;30.60;53.60;;;;;;956916;145;27397;-75
2023/09/29 13:19:20;;;;;;;2.37;2.00;;;30.50;53.60;;;;;;948309;147;27377;-76
2023/09/29 13:21:46;;;;;;;1.82;1.72;;;30.40;53.60;;;;;;938901;148;27365;-76
2023/09/29 13:24:13;;;;;;;2.37;1.90;;;30.30;53.70;;;;;;957940;145;27324;-75
2023/09/29 13:26:42;;;;;;;2.60;2.12;;;30.10;53.80;;;;;;953288;147;27346;-77